sensor_id;sensor_type;location;lat;lon;timestamp;temperature;humidity
47813;DHT22;34221;45.296;9.516;2023-04-01T00:00:00;11.00;91.70
47813;DHT22;34221;45.296;9.516;2023-04-01T00:00:16;11.00;91.70
47813;DHT22;34221;45.296;9.516;2023-04-01T00:00:31;11.00;91.90
47813;DHT22;34221;45.296;9.516;2023-04-01T00:00:46;11.00;92.00
47813;DHT22;34221;45.296;9.516;2023-04-01T00:01:03;11.00;92.00
47813;DHT22;34221;45.296;9.516;2023-04-01T00:01:19;11.00;92.10
47813;DHT22;34221;45.296;9.516;2023-04-01T00:01:34;11.00;92.10
47813;DHT22;34221;45.296;9.516;2023-04-01T00:01:49;11.00;92.20
47813;DHT22;34221;45.296;9.516;2023-04-01T00:02:04;11.10;92.20
47813;DHT22;34221;45.296;9.516;2023-04-01T00:02:19;11.10;92.50
47813;DHT22;34221;45.296;9.516;2023-04-01T00:02:34;11.10;92.30
47813;DHT22;34221;45.296;9.516;2023-04-01T00:02:50;11.00;92.40
47813;DHT22;34221;45.296;9.516;2023-04-01T00:03:05;11.00;92.50
47813;DHT22;34221;45.296;9.516;2023-04-01T00:03:21;11.00;92.50
47813;DHT22;34221;45.296;9.516;2023-04-01T00:03:37;11.00;92.50
47813;DHT22;34221;45.296;9.516;2023-04-01T00:03:52;11.00;92.60
47813;DHT22;34221;45.296;9.516;2023-04-01T00:04:08;11.00;92.90
47813;DHT22;34221;45.296;9.516;2023-04-01T00:04:23;11.00;92.80
47813;DHT22;34221;45.296;9.516;2023-04-01T00:04:38;11.00;92.90
47813;DHT22;34221;45.296;9.516;2023-04-01T00:04:53;11.00;92.90
47813;DHT22;34221;45.296;9.516;2023-04-01T00:05:09;11.00;92.90
47813;DHT22;34221;45.296;9.516;2023-04-01T00:05:24;11.00;93.00
47813;DHT22;34221;45.296;9.516;2023-04-01T00:05:39;11.00;93.20
47813;DHT22;34221;45.296;9.516;2023-04-01T00:05:58;11.00;93.10
47813;DHT22;34221;45.296;9.516;2023-04-01T00:06:16;11.00;93.30
47813;DHT22;34221;45.296;9.516;2023-04-01T00:06:32;11.00;93.10
47813;DHT22;34221;45.296;9.516;2023-04-01T00:06:47;11.00;93.30
47813;DHT22;34221;45.296;9.516;2023-04-01T00:07:02;11.00;93.10
47813;DHT22;34221;45.296;9.516;2023-04-01T00:07:17;11.00;93.10
47813;DHT22;34221;45.296;9.516;2023-04-01T00:07:32;10.90;93.20
47813;DHT22;34221;45.296;9.516;2023-04-01T00:07:47;11.00;93.30
47813;DHT22;34221;45.296;9.516;2023-04-01T00:08:02;11.00;93.30
47813;DHT22;34221;45.296;9.516;2023-04-01T00:08:17;11.00;93.40
47813;DHT22;34221;45.296;9.516;2023-04-01T00:08:32;11.00;93.40
47813;DHT22;34221;45.296;9.516;2023-04-01T00:08:47;10.90;93.50
47813;DHT22;34221;45.296;9.516;2023-04-01T00:09:03;11.00;93.60
47813;DHT22;34221;45.296;9.516;2023-04-01T00:09:18;10.90;93.70
47813;DHT22;34221;45.296;9.516;2023-04-01T00:09:33;11.00;93.80
47813;DHT22;34221;45.296;9.516;2023-04-01T00:09:48;11.00;93.80
47813;DHT22;34221;45.296;9.516;2023-04-01T00:10:04;10.90;93.80
47813;DHT22;34221;45.296;9.516;2023-04-01T00:10:20;11.00;93.90
47813;DHT22;34221;45.296;9.516;2023-04-01T00:10:35;11.00;93.90
47813;DHT22;34221;45.296;9.516;2023-04-01T00:10:50;10.90;93.90
47813;DHT22;34221;45.296;9.516;2023-04-01T00:11:05;11.00;94.00
47813;DHT22;34221;45.296;9.516;2023-04-01T00:11:20;11.00;94.10
47813;DHT22;34221;45.296;9.516;2023-04-01T00:11:35;11.00;94.10
47813;DHT22;34221;45.296;9.516;2023-04-01T00:11:50;11.00;94.20
47813;DHT22;34221;45.296;9.516;2023-04-01T00:12:05;11.00;94.10
47813;DHT22;34221;45.296;9.516;2023-04-01T00:12:20;11.00;94.10
47813;DHT22;34221;45.296;9.516;2023-04-01T00:12:35;11.00;94.10
47813;DHT22;34221;45.296;9.516;2023-04-01T00:12:50;11.00;94.10
47813;DHT22;34221;45.296;9.516;2023-04-01T00:13:06;11.00;94.20
47813;DHT22;34221;45.296;9.516;2023-04-01T00:13:22;11.00;94.20
47813;DHT22;34221;45.296;9.516;2023-04-01T00:13:37;11.00;94.30
47813;DHT22;34221;45.296;9.516;2023-04-01T00:13:53;10.90;94.30
47813;DHT22;34221;45.296;9.516;2023-04-01T00:14:08;10.90;94.30
47813;DHT22;34221;45.296;9.516;2023-04-01T00:14:23;11.00;94.30
47813;DHT22;34221;45.296;9.516;2023-04-01T00:14:38;11.00;94.60
47813;DHT22;34221;45.296;9.516;2023-04-01T00:14:54;11.00;94.60
47813;DHT22;34221;45.296;9.516;2023-04-01T00:15:10;11.00;94.60
47813;DHT22;34221;45.296;9.516;2023-04-01T00:15:26;11.00;94.70
47813;DHT22;34221;45.296;9.516;2023-04-01T00:15:42;11.00;94.80
47813;DHT22;34221;45.296;9.516;2023-04-01T00:15:57;11.00;94.70
47813;DHT22;34221;45.296;9.516;2023-04-01T00:16:13;11.00;94.70
47813;DHT22;34221;45.296;9.516;2023-04-01T00:16:28;11.00;94.80
47813;DHT22;34221;45.296;9.516;2023-04-01T00:16:43;11.10;94.80
47813;DHT22;34221;45.296;9.516;2023-04-01T00:16:58;11.10;94.90
47813;DHT22;34221;45.296;9.516;2023-04-01T00:17:13;11.00;94.80
47813;DHT22;34221;45.296;9.516;2023-04-01T00:17:28;11.00;94.90
47813;DHT22;34221;45.296;9.516;2023-04-01T00:17:43;11.10;95.00
47813;DHT22;34221;45.296;9.516;2023-04-01T00:17:58;11.00;94.80
47813;DHT22;34221;45.296;9.516;2023-04-01T00:18:13;11.00;95.00
47813;DHT22;34221;45.296;9.516;2023-04-01T00:18:29;11.00;95.10
47813;DHT22;34221;45.296;9.516;2023-04-01T00:18:45;11.00;95.30
47813;DHT22;34221;45.296;9.516;2023-04-01T00:19:01;11.00;95.40
47813;DHT22;34221;45.296;9.516;2023-04-01T00:19:16;11.00;95.60
47813;DHT22;34221;45.296;9.516;2023-04-01T00:19:31;10.90;95.50
47813;DHT22;34221;45.296;9.516;2023-04-01T00:19:47;10.90;95.60
47813;DHT22;34221;45.296;9.516;2023-04-01T00:20:03;10.90;95.80
47813;DHT22;34221;45.296;9.516;2023-04-01T00:20:19;10.90;95.80
47813;DHT22;34221;45.296;9.516;2023-04-01T00:20:34;10.90;95.90
47813;DHT22;34221;45.296;9.516;2023-04-01T00:20:50;10.90;96.00
47813;DHT22;34221;45.296;9.516;2023-04-01T00:21:05;10.90;96.10
47813;DHT22;34221;45.296;9.516;2023-04-01T00:21:21;10.90;96.20
47813;DHT22;34221;45.296;9.516;2023-04-01T00:21:36;11.00;96.30
47813;DHT22;34221;45.296;9.516;2023-04-01T00:21:51;11.00;96.30
47813;DHT22;34221;45.296;9.516;2023-04-01T00:22:06;10.90;96.20
47813;DHT22;34221;45.296;9.516;2023-04-01T00:22:24;10.90;96.30
47813;DHT22;34221;45.296;9.516;2023-04-01T00:22:40;11.00;96.40
47813;DHT22;34221;45.296;9.516;2023-04-01T00:22:56;11.00;96.40
47813;DHT22;34221;45.296;9.516;2023-04-01T00:23:11;11.00;96.50
47813;DHT22;34221;45.296;9.516;2023-04-01T00:23:26;11.00;96.60
47813;DHT22;34221;45.296;9.516;2023-04-01T00:23:41;11.00;96.70
47813;DHT22;34221;45.296;9.516;2023-04-01T00:23:56;11.00;96.80
47813;DHT22;34221;45.296;9.516;2023-04-01T00:24:12;11.00;96.90
47813;DHT22;34221;45.296;9.516;2023-04-01T00:24:27;11.00;97.00
47813;DHT22;34221;45.296;9.516;2023-04-01T00:24:42;11.00;97.00
47813;DHT22;34221;45.296;9.516;2023-04-01T00:24:57;11.00;96.90
47813;DHT22;34221;45.296;9.516;2023-04-01T00:25:12;11.10;97.00
47813;DHT22;34221;45.296;9.516;2023-04-01T00:25:27;11.10;97.00
47813;DHT22;34221;45.296;9.516;2023-04-01T00:25:43;11.00;96.90
47813;DHT22;34221;45.296;9.516;2023-04-01T00:26:02;11.00;97.00
47813;DHT22;34221;45.296;9.516;2023-04-01T00:26:19;11.00;97.00
47813;DHT22;34221;45.296;9.516;2023-04-01T00:26:35;11.00;97.10
47813;DHT22;34221;45.296;9.516;2023-04-01T00:26:50;11.00;97.00
47813;DHT22;34221;45.296;9.516;2023-04-01T00:27:05;11.00;97.10
47813;DHT22;34221;45.296;9.516;2023-04-01T00:27:21;11.00;97.20
47813;DHT22;34221;45.296;9.516;2023-04-01T00:27:36;11.00;97.20
47813;DHT22;34221;45.296;9.516;2023-04-01T00:27:51;11.00;97.30
47813;DHT22;34221;45.296;9.516;2023-04-01T00:28:06;11.00;97.30
47813;DHT22;34221;45.296;9.516;2023-04-01T00:28:21;11.00;97.40
47813;DHT22;34221;45.296;9.516;2023-04-01T00:28:36;11.00;97.40
47813;DHT22;34221;45.296;9.516;2023-04-01T00:28:51;11.00;97.40
47813;DHT22;34221;45.296;9.516;2023-04-01T00:29:06;11.00;97.40
47813;DHT22;34221;45.296;9.516;2023-04-01T00:29:22;11.00;97.40
47813;DHT22;34221;45.296;9.516;2023-04-01T00:30:17;11.10;97.50
47813;DHT22;34221;45.296;9.516;2023-04-01T00:30:32;11.10;97.50
47813;DHT22;34221;45.296;9.516;2023-04-01T00:30:47;11.10;97.50
47813;DHT22;34221;45.296;9.516;2023-04-01T00:31:06;11.10;97.50
47813;DHT22;34221;45.296;9.516;2023-04-01T00:31:22;11.10;97.40
47813;DHT22;34221;45.296;9.516;2023-04-01T00:31:37;11.10;97.50
47813;DHT22;34221;45.296;9.516;2023-04-01T00:31:52;11.10;97.50
47813;DHT22;34221;45.296;9.516;2023-04-01T00:32:07;11.00;97.50
47813;DHT22;34221;45.296;9.516;2023-04-01T00:32:22;11.10;97.70
47813;DHT22;34221;45.296;9.516;2023-04-01T00:32:37;11.00;97.70
47813;DHT22;34221;45.296;9.516;2023-04-01T00:32:53;11.10;97.70
47813;DHT22;34221;45.296;9.516;2023-04-01T00:33:08;11.10;97.70
47813;DHT22;34221;45.296;9.516;2023-04-01T00:33:23;11.10;97.70
47813;DHT22;34221;45.296;9.516;2023-04-01T00:33:39;11.10;97.70
47813;DHT22;34221;45.296;9.516;2023-04-01T00:33:55;11.10;97.60
47813;DHT22;34221;45.296;9.516;2023-04-01T00:34:11;11.10;97.70
47813;DHT22;34221;45.296;9.516;2023-04-01T00:34:26;11.10;97.70
47813;DHT22;34221;45.296;9.516;2023-04-01T00:34:41;11.00;97.70
47813;DHT22;34221;45.296;9.516;2023-04-01T00:34:56;11.00;97.70
47813;DHT22;34221;45.296;9.516;2023-04-01T00:35:14;11.00;97.80
47813;DHT22;34221;45.296;9.516;2023-04-01T00:35:29;11.00;97.80
47813;DHT22;34221;45.296;9.516;2023-04-01T00:35:44;11.00;97.80
47813;DHT22;34221;45.296;9.516;2023-04-01T00:36:13;11.00;97.80
47813;DHT22;34221;45.296;9.516;2023-04-01T00:36:29;11.00;97.90
47813;DHT22;34221;45.296;9.516;2023-04-01T00:36:44;11.10;97.80
47813;DHT22;34221;45.296;9.516;2023-04-01T00:36:59;11.10;98.00
47813;DHT22;34221;45.296;9.516;2023-04-01T00:37:13;10.90;97.90
47813;DHT22;34221;45.296;9.516;2023-04-01T00:37:29;10.90;98.10
47813;DHT22;34221;45.296;9.516;2023-04-01T00:37:44;10.90;98.20
47813;DHT22;34221;45.296;9.516;2023-04-01T00:37:59;10.90;98.10
47813;DHT22;34221;45.296;9.516;2023-04-01T00:38:14;10.90;98.20
47813;DHT22;34221;45.296;9.516;2023-04-01T00:38:29;10.90;98.20
47813;DHT22;34221;45.296;9.516;2023-04-01T00:38:45;11.00;98.20
47813;DHT22;34221;45.296;9.516;2023-04-01T00:39:01;10.90;98.30
47813;DHT22;34221;45.296;9.516;2023-04-01T00:39:16;10.90;98.30
47813;DHT22;34221;45.296;9.516;2023-04-01T00:39:32;10.90;98.30
47813;DHT22;34221;45.296;9.516;2023-04-01T00:39:47;11.00;98.30
47813;DHT22;34221;45.296;9.516;2023-04-01T00:40:04;11.00;98.30
47813;DHT22;34221;45.296;9.516;2023-04-01T00:40:33;11.00;98.30
47813;DHT22;34221;45.296;9.516;2023-04-01T00:40:50;11.00;98.40
47813;DHT22;34221;45.296;9.516;2023-04-01T00:41:13;10.90;98.60
47813;DHT22;34221;45.296;9.516;2023-04-01T00:41:30;10.90;98.60
47813;DHT22;34221;45.296;9.516;2023-04-01T00:41:45;10.90;98.60
47813;DHT22;34221;45.296;9.516;2023-04-01T00:42:02;10.90;98.60
47813;DHT22;34221;45.296;9.516;2023-04-01T00:42:18;10.90;98.80
47813;DHT22;34221;45.296;9.516;2023-04-01T00:42:34;10.90;98.80
47813;DHT22;34221;45.296;9.516;2023-04-01T00:42:49;10.90;98.80
47813;DHT22;34221;45.296;9.516;2023-04-01T00:43:13;10.90;98.80
47813;DHT22;34221;45.296;9.516;2023-04-01T00:43:32;11.00;98.80
47813;DHT22;34221;45.296;9.516;2023-04-01T00:43:49;11.00;98.70
47813;DHT22;34221;45.296;9.516;2023-04-01T00:44:23;11.00;98.70
47813;DHT22;34221;45.296;9.516;2023-04-01T00:44:40;11.00;98.60
47813;DHT22;34221;45.296;9.516;2023-04-01T00:44:57;11.00;98.60
47813;DHT22;34221;45.296;9.516;2023-04-01T00:45:42;11.00;98.50
47813;DHT22;34221;45.296;9.516;2023-04-01T00:45:57;11.00;98.40
47813;DHT22;34221;45.296;9.516;2023-04-01T00:46:12;11.00;98.40
47813;DHT22;34221;45.296;9.516;2023-04-01T00:46:28;10.90;98.40
47813;DHT22;34221;45.296;9.516;2023-04-01T00:46:43;11.00;98.40
47813;DHT22;34221;45.296;9.516;2023-04-01T00:46:58;10.90;98.40
47813;DHT22;34221;45.296;9.516;2023-04-01T00:47:14;11.00;98.70
47813;DHT22;34221;45.296;9.516;2023-04-01T00:47:29;11.00;98.40
47813;DHT22;34221;45.296;9.516;2023-04-01T00:47:44;11.00;98.50
47813;DHT22;34221;45.296;9.516;2023-04-01T00:48:03;11.00;98.40
47813;DHT22;34221;45.296;9.516;2023-04-01T00:48:24;11.00;98.40
47813;DHT22;34221;45.296;9.516;2023-04-01T00:48:47;11.00;98.40
47813;DHT22;34221;45.296;9.516;2023-04-01T00:49:03;11.00;98.40
47813;DHT22;34221;45.296;9.516;2023-04-01T00:49:20;11.00;98.30
47813;DHT22;34221;45.296;9.516;2023-04-01T00:49:39;11.10;98.30
47813;DHT22;34221;45.296;9.516;2023-04-01T00:49:56;11.10;98.20
47813;DHT22;34221;45.296;9.516;2023-04-01T00:50:11;11.00;98.30
47813;DHT22;34221;45.296;9.516;2023-04-01T00:50:26;11.00;98.30
47813;DHT22;34221;45.296;9.516;2023-04-01T00:50:50;11.00;98.40
47813;DHT22;34221;45.296;9.516;2023-04-01T00:51:20;11.00;98.40
47813;DHT22;34221;45.296;9.516;2023-04-01T00:51:37;10.90;98.40
47813;DHT22;34221;45.296;9.516;2023-04-01T00:51:55;10.90;98.50
47813;DHT22;34221;45.296;9.516;2023-04-01T00:52:15;10.90;98.50
47813;DHT22;34221;45.296;9.516;2023-04-01T00:52:33;11.00;98.50
47813;DHT22;34221;45.296;9.516;2023-04-01T00:52:48;11.00;98.50
47813;DHT22;34221;45.296;9.516;2023-04-01T00:53:05;10.90;98.40
47813;DHT22;34221;45.296;9.516;2023-04-01T00:53:22;10.90;98.40
47813;DHT22;34221;45.296;9.516;2023-04-01T00:53:44;10.90;98.50
47813;DHT22;34221;45.296;9.516;2023-04-01T00:54:03;10.90;98.50
47813;DHT22;34221;45.296;9.516;2023-04-01T00:54:20;10.90;98.50
47813;DHT22;34221;45.296;9.516;2023-04-01T00:54:37;10.90;98.60
47813;DHT22;34221;45.296;9.516;2023-04-01T00:54:56;10.90;98.70
47813;DHT22;34221;45.296;9.516;2023-04-01T00:55:15;10.90;98.60
47813;DHT22;34221;45.296;9.516;2023-04-01T00:55:33;10.90;98.60
47813;DHT22;34221;45.296;9.516;2023-04-01T00:55:54;10.90;98.60
47813;DHT22;34221;45.296;9.516;2023-04-01T00:56:15;10.90;98.60
47813;DHT22;34221;45.296;9.516;2023-04-01T00:56:34;10.90;98.50
47813;DHT22;34221;45.296;9.516;2023-04-01T00:56:55;10.90;98.50
47813;DHT22;34221;45.296;9.516;2023-04-01T00:57:21;10.90;98.50
47813;DHT22;34221;45.296;9.516;2023-04-01T00:57:42;10.90;98.50
47813;DHT22;34221;45.296;9.516;2023-04-01T00:57:59;10.80;98.60
47813;DHT22;34221;45.296;9.516;2023-04-01T00:58:18;10.80;98.60
47813;DHT22;34221;45.296;9.516;2023-04-01T00:58:38;10.90;98.80
47813;DHT22;34221;45.296;9.516;2023-04-01T00:59:02;10.80;98.80
47813;DHT22;34221;45.296;9.516;2023-04-01T00:59:23;10.80;98.80
47813;DHT22;34221;45.296;9.516;2023-04-01T00:59:47;10.80;98.80
47813;DHT22;34221;45.296;9.516;2023-04-01T01:00:06;10.80;98.90
47813;DHT22;34221;45.296;9.516;2023-04-01T01:00:26;10.70;98.90
47813;DHT22;34221;45.296;9.516;2023-04-01T01:00:41;10.70;99.00
47813;DHT22;34221;45.296;9.516;2023-04-01T01:00:58;10.70;99.10
47813;DHT22;34221;45.296;9.516;2023-04-01T01:01:14;10.70;99.20
47813;DHT22;34221;45.296;9.516;2023-04-01T01:01:30;10.70;99.20
47813;DHT22;34221;45.296;9.516;2023-04-01T01:01:47;10.70;99.20
47813;DHT22;34221;45.296;9.516;2023-04-01T01:02:03;10.70;99.20
47813;DHT22;34221;45.296;9.516;2023-04-01T01:02:21;10.70;99.20
47813;DHT22;34221;45.296;9.516;2023-04-01T01:02:37;10.70;99.30
47813;DHT22;34221;45.296;9.516;2023-04-01T01:02:52;10.70;99.30
47813;DHT22;34221;45.296;9.516;2023-04-01T01:03:07;10.70;99.20
47813;DHT22;34221;45.296;9.516;2023-04-01T01:03:22;10.70;99.30
47813;DHT22;34221;45.296;9.516;2023-04-01T01:03:37;10.70;99.30
47813;DHT22;34221;45.296;9.516;2023-04-01T01:03:52;10.70;99.20
47813;DHT22;34221;45.296;9.516;2023-04-01T01:04:24;10.70;99.20
47813;DHT22;34221;45.296;9.516;2023-04-01T01:04:41;10.70;99.10
47813;DHT22;34221;45.296;9.516;2023-04-01T01:04:57;10.60;99.00
47813;DHT22;34221;45.296;9.516;2023-04-01T01:05:13;10.70;99.10
47813;DHT22;34221;45.296;9.516;2023-04-01T01:05:52;10.70;99.20
47813;DHT22;34221;45.296;9.516;2023-04-01T01:08:36;10.70;99.20
47813;DHT22;34221;45.296;9.516;2023-04-01T01:10:29;10.60;99.20
47813;DHT22;34221;45.296;9.516;2023-04-01T01:10:49;10.60;99.10
47813;DHT22;34221;45.296;9.516;2023-04-01T01:11:07;10.60;99.20
47813;DHT22;34221;45.296;9.516;2023-04-01T01:11:33;10.60;99.20
47813;DHT22;34221;45.296;9.516;2023-04-01T01:12:16;10.60;99.10
47813;DHT22;34221;45.296;9.516;2023-04-01T01:13:36;10.50;99.10
47813;DHT22;34221;45.296;9.516;2023-04-01T01:14:29;10.50;99.20
47813;DHT22;34221;45.296;9.516;2023-04-01T01:16:10;10.50;99.10
47813;DHT22;34221;45.296;9.516;2023-04-01T01:16:36;10.50;99.20
47813;DHT22;34221;45.296;9.516;2023-04-01T01:17:19;10.50;99.10
47813;DHT22;34221;45.296;9.516;2023-04-01T01:18:03;10.40;99.30
47813;DHT22;34221;45.296;9.516;2023-04-01T01:23:23;10.30;99.90
47813;DHT22;34221;45.296;9.516;2023-04-01T01:27:02;10.20;99.90
47813;DHT22;34221;45.296;9.516;2023-04-01T01:27:22;10.20;99.90
47813;DHT22;34221;45.296;9.516;2023-04-01T01:27:40;10.20;99.90
47813;DHT22;34221;45.296;9.516;2023-04-01T01:29:10;10.10;99.90
47813;DHT22;34221;45.296;9.516;2023-04-01T01:30:00;10.10;99.90
47813;DHT22;34221;45.296;9.516;2023-04-01T01:33:59;10.00;99.90
47813;DHT22;34221;45.296;9.516;2023-04-01T01:35:33;10.00;99.90
47813;DHT22;34221;45.296;9.516;2023-04-01T01:35:59;10.00;99.90
47813;DHT22;34221;45.296;9.516;2023-04-01T01:36:19;10.00;99.90
47813;DHT22;34221;45.296;9.516;2023-04-01T01:36:38;10.00;99.90
47813;DHT22;34221;45.296;9.516;2023-04-01T01:37:01;10.00;99.90
47813;DHT22;34221;45.296;9.516;2023-04-01T01:37:23;10.00;99.90
47813;DHT22;34221;45.296;9.516;2023-04-01T01:37:40;10.00;99.90
47813;DHT22;34221;45.296;9.516;2023-04-01T01:38:04;9.90;99.90
47813;DHT22;34221;45.296;9.516;2023-04-01T01:38:26;10.00;99.90
47813;DHT22;34221;45.296;9.516;2023-04-01T01:38:48;9.90;99.90
47813;DHT22;34221;45.296;9.516;2023-04-01T01:39:06;9.90;99.90
47813;DHT22;34221;45.296;9.516;2023-04-01T01:39:26;9.90;99.90
47813;DHT22;34221;45.296;9.516;2023-04-01T01:39:46;9.90;99.90
47813;DHT22;34221;45.296;9.516;2023-04-01T01:40:08;9.90;99.90
47813;DHT22;34221;45.296;9.516;2023-04-01T01:40:27;9.70;99.90
47813;DHT22;34221;45.296;9.516;2023-04-01T01:40:46;9.70;99.90
47813;DHT22;34221;45.296;9.516;2023-04-01T01:41:05;9.70;99.90
47813;DHT22;34221;45.296;9.516;2023-04-01T01:41:25;9.70;99.90
47813;DHT22;34221;45.296;9.516;2023-04-01T01:41:42;9.80;99.90
47813;DHT22;34221;45.296;9.516;2023-04-01T01:42:02;9.80;99.90
47813;DHT22;34221;45.296;9.516;2023-04-01T01:42:20;9.80;99.90
47813;DHT22;34221;45.296;9.516;2023-04-01T01:42:40;9.80;99.90
47813;DHT22;34221;45.296;9.516;2023-04-01T01:43:04;9.80;99.90
47813;DHT22;34221;45.296;9.516;2023-04-01T01:43:24;9.80;99.90
47813;DHT22;34221;45.296;9.516;2023-04-01T01:43:44;9.80;99.90
47813;DHT22;34221;45.296;9.516;2023-04-01T01:44:04;9.70;99.90
47813;DHT22;34221;45.296;9.516;2023-04-01T01:44:21;9.70;99.90
47813;DHT22;34221;45.296;9.516;2023-04-01T01:44:37;9.70;99.90
47813;DHT22;34221;45.296;9.516;2023-04-01T01:44:54;9.70;99.90
47813;DHT22;34221;45.296;9.516;2023-04-01T01:45:13;9.70;99.90
47813;DHT22;34221;45.296;9.516;2023-04-01T01:45:32;9.70;99.90
47813;DHT22;34221;45.296;9.516;2023-04-01T01:45:53;9.70;99.90
47813;DHT22;34221;45.296;9.516;2023-04-01T01:46:13;9.70;99.90
47813;DHT22;34221;45.296;9.516;2023-04-01T01:46:31;9.70;99.90
47813;DHT22;34221;45.296;9.516;2023-04-01T01:46:47;9.60;99.90
47813;DHT22;34221;45.296;9.516;2023-04-01T01:47:02;9.70;99.90
47813;DHT22;34221;45.296;9.516;2023-04-01T01:47:18;9.70;99.90
47813;DHT22;34221;45.296;9.516;2023-04-01T01:47:35;9.70;99.90
47813;DHT22;34221;45.296;9.516;2023-04-01T01:47:51;9.70;99.90
47813;DHT22;34221;45.296;9.516;2023-04-01T01:48:08;9.60;99.90
47813;DHT22;34221;45.296;9.516;2023-04-01T01:48:24;9.60;99.90
47813;DHT22;34221;45.296;9.516;2023-04-01T01:48:42;9.60;99.90
47813;DHT22;34221;45.296;9.516;2023-04-01T01:48:59;9.60;99.90
47813;DHT22;34221;45.296;9.516;2023-04-01T01:49:17;9.60;99.90
47813;DHT22;34221;45.296;9.516;2023-04-01T01:49:33;9.60;99.90
47813;DHT22;34221;45.296;9.516;2023-04-01T01:49:51;9.60;99.90
47813;DHT22;34221;45.296;9.516;2023-04-01T01:50:07;9.60;99.90
47813;DHT22;34221;45.296;9.516;2023-04-01T01:50:24;9.60;99.90
47813;DHT22;34221;45.296;9.516;2023-04-01T01:50:41;9.60;99.90
47813;DHT22;34221;45.296;9.516;2023-04-01T01:50:59;9.60;99.90
47813;DHT22;34221;45.296;9.516;2023-04-01T01:51:14;9.60;99.90
47813;DHT22;34221;45.296;9.516;2023-04-01T01:51:30;9.60;99.90
47813;DHT22;34221;45.296;9.516;2023-04-01T01:51:45;9.60;99.90
47813;DHT22;34221;45.296;9.516;2023-04-01T01:52:01;9.60;99.90
47813;DHT22;34221;45.296;9.516;2023-04-01T01:52:17;9.60;99.90
47813;DHT22;34221;45.296;9.516;2023-04-01T01:52:32;9.60;99.90
47813;DHT22;34221;45.296;9.516;2023-04-01T01:52:48;9.60;99.90
47813;DHT22;34221;45.296;9.516;2023-04-01T01:53:09;9.60;99.90
47813;DHT22;34221;45.296;9.516;2023-04-01T01:53:25;9.60;99.90
47813;DHT22;34221;45.296;9.516;2023-04-01T01:53:40;9.50;99.90
47813;DHT22;34221;45.296;9.516;2023-04-01T01:53:55;9.50;99.90
47813;DHT22;34221;45.296;9.516;2023-04-01T01:54:17;9.50;99.90
47813;DHT22;34221;45.296;9.516;2023-04-01T01:54:33;9.50;99.90
47813;DHT22;34221;45.296;9.516;2023-04-01T01:54:53;9.50;99.90
47813;DHT22;34221;45.296;9.516;2023-04-01T01:55:34;9.50;99.90
47813;DHT22;34221;45.296;9.516;2023-04-01T01:55:51;9.50;99.90
47813;DHT22;34221;45.296;9.516;2023-04-01T01:56:07;9.50;99.90
47813;DHT22;34221;45.296;9.516;2023-04-01T01:56:28;9.50;99.90
47813;DHT22;34221;45.296;9.516;2023-04-01T01:56:46;9.50;99.90
47813;DHT22;34221;45.296;9.516;2023-04-01T01:57:08;9.60;99.90
47813;DHT22;34221;45.296;9.516;2023-04-01T01:57:34;9.50;99.90
47813;DHT22;34221;45.296;9.516;2023-04-01T01:57:58;9.50;99.90
47813;DHT22;34221;45.296;9.516;2023-04-01T01:59:02;9.60;99.90
47813;DHT22;34221;45.296;9.516;2023-04-01T01:59:20;9.50;99.90
47813;DHT22;34221;45.296;9.516;2023-04-01T01:59:38;9.50;99.90
47813;DHT22;34221;45.296;9.516;2023-04-01T01:59:58;9.50;99.90
47813;DHT22;34221;45.296;9.516;2023-04-01T02:00:28;9.50;99.90
47813;DHT22;34221;45.296;9.516;2023-04-01T02:00:46;9.50;99.90
47813;DHT22;34221;45.296;9.516;2023-04-01T02:01:07;9.50;99.90
47813;DHT22;34221;45.296;9.516;2023-04-01T02:01:28;9.40;99.90
47813;DHT22;34221;45.296;9.516;2023-04-01T02:01:53;9.50;99.90
47813;DHT22;34221;45.296;9.516;2023-04-01T02:02:10;9.50;99.90
47813;DHT22;34221;45.296;9.516;2023-04-01T02:02:32;9.50;99.90
47813;DHT22;34221;45.296;9.516;2023-04-01T02:02:48;9.40;99.90
47813;DHT22;34221;45.296;9.516;2023-04-01T02:03:04;9.40;99.90
47813;DHT22;34221;45.296;9.516;2023-04-01T02:03:21;9.50;99.90
47813;DHT22;34221;45.296;9.516;2023-04-01T02:03:40;9.50;99.90
47813;DHT22;34221;45.296;9.516;2023-04-01T02:03:57;9.50;99.90
47813;DHT22;34221;45.296;9.516;2023-04-01T02:04:13;9.50;99.90
47813;DHT22;34221;45.296;9.516;2023-04-01T02:04:30;9.50;99.90
47813;DHT22;34221;45.296;9.516;2023-04-01T02:04:45;9.50;99.90
47813;DHT22;34221;45.296;9.516;2023-04-01T02:05:01;9.50;99.90
47813;DHT22;34221;45.296;9.516;2023-04-01T02:05:21;9.50;99.90
47813;DHT22;34221;45.296;9.516;2023-04-01T02:05:39;9.50;99.90
47813;DHT22;34221;45.296;9.516;2023-04-01T02:05:59;9.40;99.90
47813;DHT22;34221;45.296;9.516;2023-04-01T02:06:18;9.50;99.90
47813;DHT22;34221;45.296;9.516;2023-04-01T02:06:38;9.40;99.90
47813;DHT22;34221;45.296;9.516;2023-04-01T02:07:00;9.40;99.90
47813;DHT22;34221;45.296;9.516;2023-04-01T02:07:23;9.30;99.90
47813;DHT22;34221;45.296;9.516;2023-04-01T02:07:43;9.30;99.90
47813;DHT22;34221;45.296;9.516;2023-04-01T02:08:10;9.30;99.90
47813;DHT22;34221;45.296;9.516;2023-04-01T02:09:08;9.40;99.90
47813;DHT22;34221;45.296;9.516;2023-04-01T02:09:25;9.40;99.90
47813;DHT22;34221;45.296;9.516;2023-04-01T02:09:40;9.40;99.90
47813;DHT22;34221;45.296;9.516;2023-04-01T02:09:56;9.40;99.90
47813;DHT22;34221;45.296;9.516;2023-04-01T02:10:11;9.40;99.90
47813;DHT22;34221;45.296;9.516;2023-04-01T02:10:27;9.40;99.90
47813;DHT22;34221;45.296;9.516;2023-04-01T02:11:04;9.30;99.90
47813;DHT22;34221;45.296;9.516;2023-04-01T02:11:37;9.40;99.90
47813;DHT22;34221;45.296;9.516;2023-04-01T02:12:05;9.40;99.90
47813;DHT22;34221;45.296;9.516;2023-04-01T02:12:27;9.40;99.90
47813;DHT22;34221;45.296;9.516;2023-04-01T02:12:44;9.40;99.90
47813;DHT22;34221;45.296;9.516;2023-04-01T02:13:08;9.40;99.90
47813;DHT22;34221;45.296;9.516;2023-04-01T02:13:40;9.40;99.90
47813;DHT22;34221;45.296;9.516;2023-04-01T02:14:21;9.40;99.90
47813;DHT22;34221;45.296;9.516;2023-04-01T02:14:53;9.40;99.90
47813;DHT22;34221;45.296;9.516;2023-04-01T02:15:13;9.40;99.80
47813;DHT22;34221;45.296;9.516;2023-04-01T02:15:32;9.40;99.80
47813;DHT22;34221;45.296;9.516;2023-04-01T02:15:53;9.40;99.80
47813;DHT22;34221;45.296;9.516;2023-04-01T02:16:18;9.40;99.80
47813;DHT22;34221;45.296;9.516;2023-04-01T02:16:54;9.40;99.70
47813;DHT22;34221;45.296;9.516;2023-04-01T02:17:26;9.40;99.70
47813;DHT22;34221;45.296;9.516;2023-04-01T02:17:44;9.40;99.70
47813;DHT22;34221;45.296;9.516;2023-04-01T02:18:00;9.30;99.70
47813;DHT22;34221;45.296;9.516;2023-04-01T02:18:16;9.40;99.80
47813;DHT22;34221;45.296;9.516;2023-04-01T02:18:35;9.40;99.80
47813;DHT22;34221;45.296;9.516;2023-04-01T02:18:53;9.30;99.80
47813;DHT22;34221;45.296;9.516;2023-04-01T02:19:10;9.20;99.80